PWSweather.com
Personal Weather Stations
Station Observations
HAJERN
Hajeren, HvittingfossNO 3647

HajerenHvittingfossNO 3647

Lat: 59.54314324, Lon: 9.95778703

Elevation: 1320

Station Type: Fine Ofset WS 1080

www.hajern.no

High Low Average
Temperature 52.9°F11.6°C 33.3°F0.7°C 41.5°F5.3°C
Dew Point 41.5°F5.3°C 25.5°F-3.6°C 32.4°F0.2°C
Winds 10.2 mph 16.4 kmh Calm Calm 4.0 mph SE6.4 kmh SE
Wind Gusts 15.2 mph24.5 kmh -- 6.0 mph9.7 kmh
Humidity 99% 35% 73%
Pressure 30.12 in1020.0 mb 30.05 in1017.6 mb -
Precipitation 0.42 in10.7 mm - -
Hour Temp Dew Point Humidity Winds Wind Gusts Pressure Precip Precip Rate Daily Precip Total
12:00 AM 34.2°F1.2°C 33.9°F1.1°C 99% Calm Calm -- 30.06 in1017.9 mb 0.02 in0.5 mm 0.00 in0.0 mm 0.02 in0.5 mm
12:15 AM 34.3°F1.3°C 34.1°F1.2°C 99% Calm Calm -- 30.06 in1017.9 mb 0.02 in0.5 mm 0.00 in0.0 mm 0.02 in0.5 mm
12:30 AM 34.2°F1.2°C 33.9°F1.1°C 99% Calm Calm -- 30.06 in1017.9 mb 0.04 in1.0 mm 0.08 in2.0 mm 0.04 in1.0 mm
12:45 AM 34.2°F1.2°C 33.9°F1.1°C 99% Calm Calm -- 30.06 in1017.9 mb 0.02 in0.5 mm 0.00 in0.0 mm 0.04 in1.0 mm
01:00 AM 34.3°F1.3°C 34.1°F1.2°C 99% Calm Calm -- 30.06 in1017.9 mb 0.02 in0.5 mm 0.00 in0.0 mm 0.04 in1.0 mm
01:15 AM 34.3°F1.3°C 34.1°F1.2°C 99% Calm Calm -- 30.05 in1017.6 mb 0.02 in0.5 mm 0.00 in0.0 mm 0.04 in1.0 mm
01:30 AM 34.5°F1.4°C 34.3°F1.3°C 99% Calm Calm -- 30.05 in1017.6 mb 0.02 in0.5 mm 0.00 in0.0 mm 0.06 in1.5 mm
01:45 AM 34.3°F1.3°C 34.1°F1.2°C 99% 0.1 mph N0.2 kmh N 0.7 mph1.1 kmh 30.06 in1017.9 mb 0.02 in0.5 mm 0.00 in0.0 mm 0.06 in1.5 mm
02:00 AM 34.2°F1.2°C 33.9°F1.1°C 99% 0.7 mph S1.1 kmh S 2.2 mph3.5 kmh 30.06 in1017.9 mb 0.02 in0.5 mm 0.00 in0.0 mm 0.06 in1.5 mm
02:15 AM 34.2°F1.2°C 33.9°F1.1°C 99% Calm Calm -- 30.06 in1017.9 mb 0.02 in0.5 mm 0.00 in0.0 mm 0.06 in1.5 mm
02:30 AM 34.2°F1.2°C 33.9°F1.1°C 99% Calm Calm -- 30.07 in1018.3 mb 0.02 in0.5 mm 0.00 in0.0 mm 0.08 in2.0 mm
02:45 AM 34.2°F1.2°C 33.9°F1.1°C 99% Calm Calm -- 30.06 in1017.9 mb 0.02 in0.5 mm 0.00 in0.0 mm 0.08 in2.0 mm
03:00 AM 34.0°F1.1°C 33.7°F0.9°C 99% Calm Calm -- 30.07 in1018.3 mb 0.02 in0.5 mm 0.00 in0.0 mm 0.08 in2.0 mm
03:15 AM 34.2°F1.2°C 33.9°F1.1°C 99% 0.2 mph E0.3 kmh E 1.6 mph2.6 kmh 30.07 in1018.3 mb 0.02 in0.5 mm 0.00 in0.0 mm 0.08 in2.0 mm
03:30 AM 34.3°F1.3°C 34.1°F1.2°C 99% Calm Calm -- 30.07 in1018.3 mb 0.00 in0.0 mm 0.00 in0.0 mm 0.08 in2.0 mm
03:45 AM 34.2°F1.2°C 33.9°F1.1°C 99% Calm Calm -- 30.07 in1018.3 mb 0.00 in0.0 mm 0.00 in0.0 mm 0.08 in2.0 mm
04:00 AM 34.0°F1.1°C 33.7°F0.9°C 99% Calm Calm -- 30.07 in1018.3 mb 0.02 in0.5 mm 0.03 in0.8 mm 0.09 in2.3 mm
04:15 AM 33.8°F1.0°C 33.6°F0.9°C 99% Calm Calm -- 30.07 in1018.3 mb 0.02 in0.5 mm 0.00 in0.0 mm 0.09 in2.3 mm
04:30 AM 33.6°F0.9°C 33.4°F0.8°C 99% Calm Calm -- 30.07 in1018.3 mb 0.02 in0.5 mm 0.00 in0.0 mm 0.09 in2.3 mm
04:45 AM 33.3°F0.7°C 33.0°F0.6°C 99% Calm Calm -- 30.07 in1018.3 mb 0.02 in0.5 mm 0.00 in0.0 mm 0.09 in2.3 mm
05:00 AM 33.6°F0.9°C 33.4°F0.8°C 99% Calm Calm -- 30.08 in1018.6 mb 0.00 in0.0 mm 0.00 in0.0 mm 0.09 in2.3 mm
05:15 AM 33.8°F1.0°C 33.6°F0.9°C 99% 0.2 mph SE0.3 kmh SE 2.2 mph3.5 kmh 30.08 in1018.6 mb 0.00 in0.0 mm 0.00 in0.0 mm 0.09 in2.3 mm
05:30 AM 33.8°F1.0°C 33.6°F0.9°C 99% Calm Calm -- 30.09 in1019.0 mb 0.00 in0.0 mm 0.00 in0.0 mm 0.09 in2.3 mm
05:45 AM 34.2°F1.2°C 33.9°F1.1°C 99% Calm Calm -- 30.09 in1019.0 mb 0.02 in0.5 mm 0.08 in2.0 mm 0.11 in2.8 mm
06:00 AM 34.7°F1.5°C 34.5°F1.4°C 99% Calm Calm -- 30.09 in1019.0 mb 0.02 in0.5 mm 0.00 in0.0 mm 0.11 in2.8 mm
06:15 AM 35.1°F1.7°C 34.8°F1.6°C 99% 0.1 mph SW0.2 kmh SW 1.6 mph2.6 kmh 30.09 in1019.0 mb 0.02 in0.5 mm 0.00 in0.0 mm 0.11 in2.8 mm
06:30 AM 35.8°F2.1°C 35.5°F1.9°C 99% Calm Calm -- 30.09 in1019.0 mb 0.02 in0.5 mm 0.00 in0.0 mm 0.11 in2.8 mm
06:45 AM 36.7°F2.6°C 36.4°F2.4°C 99% 0.5 mph SSW0.8 kmh SSW 3.1 mph5.0 kmh 30.10 in1019.3 mb 0.02 in0.5 mm 0.00 in0.0 mm 0.13 in3.3 mm
07:00 AM 36.9°F2.7°C 36.6°F2.6°C 99% Calm Calm -- 30.10 in1019.3 mb 0.02 in0.5 mm 0.00 in0.0 mm 0.13 in3.3 mm
07:15 AM 37.2°F2.9°C 37.0°F2.8°C 99% Calm Calm -- 30.10 in1019.3 mb 0.04 in1.0 mm 0.08 in2.0 mm 0.15 in3.8 mm
07:30 AM 37.9°F3.3°C 37.7°F3.2°C 99% Calm Calm -- 30.10 in1019.3 mb 0.06 in1.5 mm 0.08 in2.0 mm 0.17 in4.3 mm
07:45 AM 37.8°F3.2°C 37.5°F3.1°C 99% 3.5 mph S5.6 kmh S 4.5 mph7.2 kmh 30.10 in1019.3 mb 0.06 in1.5 mm 0.00 in0.0 mm 0.19 in4.8 mm
08:00 AM 41.7°F5.4°C 41.5°F5.3°C 99% 2.4 mph SSW3.9 kmh SSW 4.5 mph7.2 kmh 30.10 in1019.3 mb 0.09 in2.3 mm 0.04 in1.0 mm 0.23 in5.8 mm
08:15 AM 43.0°F6.1°C 41.4°F5.2°C 94% 3.2 mph S5.1 kmh S 4.5 mph7.2 kmh 30.10 in1019.3 mb 0.13 in3.3 mm 0.16 in4.1 mm 0.28 in7.1 mm
08:30 AM 39.9°F4.4°C 36.9°F2.7°C 89% 4.6 mph SW7.4 kmh SW 6.0 mph9.7 kmh 30.11 in1019.6 mb 0.13 in3.3 mm 0.00 in0.0 mm 0.30 in7.6 mm
08:45 AM 45.3°F7.4°C 37.9°F3.3°C 75% 3.6 mph S5.8 kmh S 4.5 mph7.2 kmh 30.10 in1019.3 mb 0.15 in3.8 mm 0.08 in2.0 mm 0.36 in9.1 mm
09:00 AM 46.0°F7.8°C 36.1°F2.3°C 68% 6.0 mph SSW9.7 kmh SSW 9.2 mph14.8 kmh 30.10 in1019.3 mb 0.17 in4.3 mm 0.03 in0.8 mm 0.40 in10.2 mm
09:15 AM 44.8°F7.1°C 33.4°F0.8°C 64% 5.5 mph S8.9 kmh S 7.6 mph12.2 kmh 30.10 in1019.3 mb 0.13 in3.3 mm 0.00 in0.0 mm 0.42 in10.7 mm
09:30 AM 45.1°F7.3°C 33.3°F0.7°C 63% 5.7 mph S9.2 kmh S 8.3 mph13.4 kmh 30.11 in1019.6 mb 0.11 in2.8 mm 0.00 in0.0 mm 0.42 in10.7 mm
09:45 AM 46.4°F8.0°C 32.4°F0.2°C 58% 5.4 mph S8.7 kmh S 6.9 mph11.1 kmh 30.11 in1019.6 mb 0.06 in1.5 mm 0.00 in0.0 mm 0.42 in10.7 mm
10:00 AM 41.9°F5.5°C 31.4°F-0.3°C 66% 5.7 mph SSE9.2 kmh SSE 7.6 mph12.2 kmh 30.11 in1019.6 mb 0.02 in0.5 mm 0.00 in0.0 mm 0.42 in10.7 mm
10:15 AM 45.1°F7.3°C 32.9°F0.5°C 62% 5.0 mph SSW8.0 kmh SSW 6.9 mph11.1 kmh 30.11 in1019.6 mb 0.00 in0.0 mm 0.00 in0.0 mm 0.42 in10.7 mm
10:30 AM 43.9°F6.6°C 32.9°F0.5°C 65% 4.2 mph SE6.8 kmh SE 5.4 mph8.7 kmh 30.11 in1019.6 mb 0.00 in0.0 mm 0.00 in0.0 mm 0.42 in10.7 mm
10:45 AM 42.8°F6.0°C 31.5°F-0.3°C 64% 5.1 mph SE8.2 kmh SE 6.9 mph11.1 kmh 30.11 in1019.6 mb 0.00 in0.0 mm 0.00 in0.0 mm 0.42 in10.7 mm
11:00 AM 46.4°F8.0°C 31.6°F-0.2°C 56% 4.6 mph SE7.4 kmh SE 7.6 mph12.2 kmh 30.11 in1019.6 mb 0.00 in0.0 mm 0.00 in0.0 mm 0.42 in10.7 mm
11:15 AM 46.4°F8.0°C 30.2°F-1.0°C 53% 5.5 mph S8.9 kmh S 9.2 mph14.8 kmh 30.11 in1019.6 mb 0.00 in0.0 mm 0.00 in0.0 mm 0.42 in10.7 mm
11:30 AM 47.5°F8.6°C 31.2°F-0.4°C 53% 4.3 mph S6.9 kmh S 6.0 mph9.7 kmh 30.12 in1020.0 mb 0.00 in0.0 mm 0.00 in0.0 mm 0.42 in10.7 mm
11:45 AM 50.5°F10.3°C 33.6°F0.9°C 52% 5.9 mph S9.5 kmh S 9.2 mph14.8 kmh 30.11 in1019.6 mb 0.00 in0.0 mm 0.00 in0.0 mm 0.42 in10.7 mm
12:00 PM 48.0°F8.9°C 30.3°F-0.9°C 50% 6.6 mph SSE10.6 kmh SSE 13.0 mph20.9 kmh 30.11 in1019.6 mb 0.00 in0.0 mm 0.00 in0.0 mm 0.42 in10.7 mm
12:15 PM 44.8°F7.1°C 30.9°F-0.6°C 58% 7.3 mph S11.7 kmh S 13.0 mph20.9 kmh 30.11 in1019.6 mb 0.00 in0.0 mm 0.00 in0.0 mm 0.42 in10.7 mm
12:30 PM 45.1°F7.3°C 29.0°F-1.7°C 53% 5.9 mph WSW9.5 kmh WSW 9.2 mph14.8 kmh 30.11 in1019.6 mb 0.00 in0.0 mm 0.00 in0.0 mm 0.42 in10.7 mm
12:45 PM 46.8°F8.2°C 30.5°F-0.8°C 53% 8.1 mph SW13.0 kmh SW 12.1 mph19.5 kmh 30.11 in1019.6 mb 0.00 in0.0 mm 0.00 in0.0 mm 0.42 in10.7 mm
01:00 PM 50.0°F10.0°C 29.5°F-1.4°C 45% 6.9 mph S11.1 kmh S 15.2 mph24.5 kmh 30.11 in1019.6 mb 0.00 in0.0 mm 0.00 in0.0 mm 0.42 in10.7 mm
01:15 PM 47.1°F8.4°C 27.4°F-2.6°C 46% 10.2 mph S16.4 kmh S 15.2 mph24.5 kmh 30.11 in1019.6 mb 0.00 in0.0 mm 0.00 in0.0 mm 0.42 in10.7 mm
01:30 PM 46.9°F8.3°C 28.8°F-1.8°C 49% 8.9 mph S14.3 kmh S 10.7 mph17.2 kmh 30.10 in1019.3 mb 0.00 in0.0 mm 0.00 in0.0 mm 0.42 in10.7 mm
01:45 PM 48.4°F9.1°C 28.0°F-2.2°C 45% 9.1 mph SSW14.6 kmh SSW 13.0 mph20.9 kmh 30.11 in1019.6 mb 0.00 in0.0 mm 0.00 in0.0 mm 0.42 in10.7 mm
02:00 PM 49.6°F9.8°C 28.1°F-2.2°C 43% 8.3 mph S13.4 kmh S 9.8 mph15.8 kmh 30.10 in1019.3 mb 0.00 in0.0 mm 0.00 in0.0 mm 0.42 in10.7 mm
02:15 PM 52.9°F11.6°C 26.0°F-3.3°C 35% 9.2 mph S14.8 kmh S 13.0 mph20.9 kmh 30.10 in1019.3 mb 0.00 in0.0 mm 0.00 in0.0 mm 0.42 in10.7 mm
02:30 PM 51.3°F10.7°C 27.2°F-2.7°C 39% 9.2 mph WSW14.8 kmh WSW 14.5 mph23.3 kmh 30.11 in1019.6 mb 0.00 in0.0 mm 0.00 in0.0 mm 0.42 in10.7 mm
02:45 PM 50.0°F10.0°C 28.4°F-2.0°C 43% 5.4 mph WSW8.7 kmh WSW 9.8 mph15.8 kmh 30.11 in1019.6 mb 0.00 in0.0 mm 0.00 in0.0 mm 0.42 in10.7 mm
03:00 PM 48.7°F9.3°C 26.1°F-3.3°C 41% 6.0 mph S9.7 kmh S 9.8 mph15.8 kmh 30.10 in1019.3 mb 0.00 in0.0 mm 0.00 in0.0 mm 0.42 in10.7 mm
03:15 PM 48.7°F9.3°C 25.5°F-3.6°C 40% 5.5 mph SSE8.9 kmh SSE 8.3 mph13.4 kmh 30.10 in1019.3 mb 0.00 in0.0 mm 0.00 in0.0 mm 0.42 in10.7 mm
03:30 PM 47.1°F8.4°C 31.3°F-0.4°C 54% 6.9 mph S11.1 kmh S 13.0 mph20.9 kmh 30.10 in1019.3 mb 0.00 in0.0 mm 0.00 in0.0 mm 0.42 in10.7 mm
03:45 PM 47.1°F8.4°C 32.7°F0.4°C 57% 7.6 mph S12.2 kmh S 9.8 mph15.8 kmh 30.11 in1019.6 mb 0.00 in0.0 mm 0.00 in0.0 mm 0.42 in10.7 mm
04:00 PM 46.0°F7.8°C 31.7°F-0.2°C 57% 10.1 mph SE16.3 kmh SE 13.0 mph20.9 kmh 30.11 in1019.6 mb 0.00 in0.0 mm 0.00 in0.0 mm 0.42 in10.7 mm
04:15 PM 46.6°F8.1°C 32.2°F0.1°C 57% 8.2 mph SSE13.2 kmh SSE 9.8 mph15.8 kmh 30.11 in1019.6 mb 0.00 in0.0 mm 0.00 in0.0 mm 0.42 in10.7 mm
04:30 PM 46.6°F8.1°C 32.2°F0.1°C 57% 9.8 mph SSW15.8 kmh SSW 14.5 mph23.3 kmh 30.11 in1019.6 mb 0.00 in0.0 mm 0.00 in0.0 mm 0.42 in10.7 mm
04:45 PM 47.1°F8.4°C 32.2°F0.1°C 56% 8.5 mph S13.7 kmh S 11.4 mph18.3 kmh 30.11 in1019.6 mb 0.00 in0.0 mm 0.00 in0.0 mm 0.42 in10.7 mm
05:00 PM 45.9°F7.7°C 31.9°F-0.1°C 58% 9.5 mph S15.3 kmh S 13.0 mph20.9 kmh 30.11 in1019.6 mb 0.00 in0.0 mm 0.00 in0.0 mm 0.42 in10.7 mm
05:15 PM 46.0°F7.8°C 31.7°F-0.2°C 57% 6.8 mph S10.9 kmh S 9.2 mph14.8 kmh 30.11 in1019.6 mb 0.00 in0.0 mm 0.00 in0.0 mm 0.42 in10.7 mm
05:30 PM 45.1°F7.3°C 32.1°F0.1°C 60% 7.8 mph SSW12.6 kmh SSW 10.7 mph17.2 kmh 30.12 in1020.0 mb 0.00 in0.0 mm 0.00 in0.0 mm 0.42 in10.7 mm
05:45 PM 44.4°F6.9°C 31.8°F-0.1°C 61% 6.6 mph SSE10.6 kmh SSE 8.3 mph13.4 kmh 30.12 in1020.0 mb 0.00 in0.0 mm 0.00 in0.0 mm 0.42 in10.7 mm
06:00 PM 44.6°F7.0°C 32.0°F0.0°C 61% 5.6 mph S9.0 kmh S 8.3 mph13.4 kmh 30.12 in1020.0 mb 0.00 in0.0 mm 0.00 in0.0 mm 0.42 in10.7 mm
06:15 PM 44.6°F7.0°C 32.4°F0.2°C 62% 5.4 mph S8.7 kmh S 7.6 mph12.2 kmh 30.11 in1019.6 mb 0.00 in0.0 mm 0.00 in0.0 mm 0.42 in10.7 mm
06:30 PM 44.2°F6.8°C 32.1°F0.1°C 62% 3.7 mph S6.0 kmh S 4.5 mph7.2 kmh 30.11 in1019.6 mb 0.00 in0.0 mm 0.00 in0.0 mm 0.42 in10.7 mm
06:45 PM 43.9°F6.6°C 31.7°F-0.2°C 62% 2.4 mph S3.9 kmh S 3.8 mph6.1 kmh 30.12 in1020.0 mb 0.00 in0.0 mm 0.00 in0.0 mm 0.42 in10.7 mm
07:00 PM 43.5°F6.4°C 32.2°F0.1°C 64% 3.8 mph S6.1 kmh S 6.0 mph9.7 kmh 30.12 in1020.0 mb 0.00 in0.0 mm 0.00 in0.0 mm 0.42 in10.7 mm
07:15 PM 43.3°F6.3°C 32.4°F0.2°C 65% 3.2 mph S5.1 kmh S 4.5 mph7.2 kmh 30.11 in1019.6 mb 0.00 in0.0 mm 0.00 in0.0 mm 0.42 in10.7 mm
07:30 PM 43.0°F6.1°C 32.4°F0.2°C 66% 4.0 mph S6.4 kmh S 5.4 mph8.7 kmh 30.12 in1020.0 mb 0.00 in0.0 mm 0.00 in0.0 mm 0.42 in10.7 mm
07:45 PM 42.3°F5.7°C 32.5°F0.3°C 68% 3.4 mph SE5.5 kmh SE 5.4 mph8.7 kmh 30.11 in1019.6 mb 0.00 in0.0 mm 0.00 in0.0 mm 0.42 in10.7 mm
08:00 PM 41.9°F5.5°C 32.5°F0.3°C 69% 4.1 mph SSE6.6 kmh SSE 6.0 mph9.7 kmh 30.11 in1019.6 mb 0.00 in0.0 mm 0.00 in0.0 mm 0.42 in10.7 mm
08:15 PM 41.7°F5.4°C 32.7°F0.4°C 70% 4.6 mph S7.4 kmh S 6.9 mph11.1 kmh 30.11 in1019.6 mb 0.00 in0.0 mm 0.00 in0.0 mm 0.42 in10.7 mm
08:30 PM 41.4°F5.2°C 32.7°F0.4°C 71% 4.5 mph S7.2 kmh S 6.9 mph11.1 kmh 30.12 in1020.0 mb 0.00 in0.0 mm 0.00 in0.0 mm 0.42 in10.7 mm
08:45 PM 41.0°F5.0°C 32.7°F0.4°C 72% 5.8 mph S9.3 kmh S 9.8 mph15.8 kmh 30.12 in1020.0 mb 0.00 in0.0 mm 0.00 in0.0 mm 0.42 in10.7 mm
09:00 PM 40.6°F4.8°C 32.7°F0.4°C 73% 3.2 mph SE5.1 kmh SE 4.5 mph7.2 kmh 30.12 in1020.0 mb 0.00 in0.0 mm 0.00 in0.0 mm 0.42 in10.7 mm
09:15 PM 40.1°F4.5°C 32.5°F0.3°C 74% 1.9 mph SE3.1 kmh SE 3.8 mph6.1 kmh 30.12 in1020.0 mb 0.00 in0.0 mm 0.00 in0.0 mm 0.42 in10.7 mm
09:30 PM 39.9°F4.4°C 32.3°F0.2°C 74% 3.2 mph SE5.1 kmh SE 3.8 mph6.1 kmh 30.11 in1019.6 mb 0.00 in0.0 mm 0.00 in0.0 mm 0.42 in10.7 mm
09:45 PM 39.7°F4.3°C 31.5°F-0.3°C 72% 5.4 mph SSW8.7 kmh SSW 9.2 mph14.8 kmh 30.11 in1019.6 mb 0.00 in0.0 mm 0.00 in0.0 mm 0.42 in10.7 mm
10:00 PM 40.3°F4.6°C 30.6°F-0.8°C 68% 6.6 mph S10.6 kmh S 10.7 mph17.2 kmh 30.11 in1019.6 mb 0.00 in0.0 mm 0.00 in0.0 mm 0.42 in10.7 mm
10:15 PM 39.7°F4.3°C 30.4°F-0.9°C 69% 4.6 mph S7.4 kmh S 6.9 mph11.1 kmh 30.11 in1019.6 mb 0.00 in0.0 mm 0.00 in0.0 mm 0.42 in10.7 mm
10:30 PM 38.5°F3.6°C 30.3°F-0.9°C 72% 2.5 mph S4.0 kmh S 3.8 mph6.1 kmh 30.11 in1019.6 mb 0.00 in0.0 mm 0.00 in0.0 mm 0.42 in10.7 mm
10:45 PM 37.8°F3.2°C 29.9°F-1.2°C 73% 4.6 mph SW7.4 kmh SW 6.9 mph11.1 kmh 30.11 in1019.6 mb 0.00 in0.0 mm 0.00 in0.0 mm 0.42 in10.7 mm
11:00 PM 37.9°F3.3°C 29.7°F-1.3°C 72% 5.0 mph SW8.0 kmh SW 6.9 mph11.1 kmh 30.11 in1019.6 mb 0.00 in0.0 mm 0.00 in0.0 mm 0.23 in5.8 mm
11:15 PM 38.1°F3.4°C 29.6°F-1.3°C 71% 4.3 mph SSW6.9 kmh SSW 5.4 mph8.7 kmh 30.11 in1019.6 mb 0.00 in0.0 mm 0.00 in0.0 mm 0.23 in5.8 mm
11:30 PM 38.1°F3.4°C 28.9°F-1.7°C 69% 4.5 mph SSW7.2 kmh SSW 6.0 mph9.7 kmh 30.11 in1019.6 mb 0.00 in0.0 mm 0.00 in0.0 mm 0.23 in5.8 mm
11:45 PM 38.1°F3.4°C 28.5°F-1.9°C 68% 4.6 mph S7.4 kmh S 9.2 mph14.8 kmh 30.10 in1019.3 mb 0.00 in0.0 mm 0.00 in0.0 mm 0.23 in5.8 mm